sensor_id;sensor_type;location;lat;lon;timestamp;pressure;altitude;pressure_sealevel;temperature;humidity
24234;BME280;12365;43.554;1.388;2023-11-22T00:01:28;100415.13;;;13.72;66.33
24234;BME280;12365;43.554;1.388;2023-11-22T00:03:53;100408.25;;;13.74;66.22
24234;BME280;12365;43.554;1.388;2023-11-22T00:06:19;100409.13;;;13.75;66.33
24234;BME280;12365;43.554;1.388;2023-11-22T00:08:46;100404.66;;;13.72;66.27
24234;BME280;12365;43.554;1.388;2023-11-22T00:11:12;100411.72;;;13.73;66.33
24234;BME280;12365;43.554;1.388;2023-11-22T00:13:40;100411.63;;;13.72;66.36
24234;BME280;12365;43.554;1.388;2023-11-22T00:16:05;100402.88;;;13.71;66.28
24234;BME280;12365;43.554;1.388;2023-11-22T00:18:36;100411.72;;;13.73;66.13
24234;BME280;12365;43.554;1.388;2023-11-22T00:21:03;100412.59;;;13.74;66.20
24234;BME280;12365;43.554;1.388;2023-11-22T00:23:28;100413.50;;;13.74;66.25
24234;BME280;12365;43.554;1.388;2023-11-22T00:25:55;100409.91;;;13.72;66.19
24234;BME280;12365;43.554;1.388;2023-11-22T00:28:22;100404.81;;;13.75;66.08
24234;BME280;12365;43.554;1.388;2023-11-22T00:30:48;100411.75;;;13.75;66.03
24234;BME280;12365;43.554;1.388;2023-11-22T00:33:13;100415.44;;;13.78;65.99
24234;BME280;12365;43.554;1.388;2023-11-22T00:35:39;100408.31;;;13.76;66.13
24234;BME280;12365;43.554;1.388;2023-11-22T00:38:05;100413.69;;;13.79;66.08
24234;BME280;12365;43.554;1.388;2023-11-22T00:40:31;100410.25;;;13.80;66.01
24234;BME280;12365;43.554;1.388;2023-11-22T00:42:57;100406.72;;;13.79;65.90
24234;BME280;12365;43.554;1.388;2023-11-22T00:45:23;100418.09;;;13.80;65.94
24234;BME280;12365;43.554;1.388;2023-11-22T00:47:48;100410.09;;;13.77;65.99
24234;BME280;12365;43.554;1.388;2023-11-22T00:50:15;100417.09;;;13.76;65.83
24234;BME280;12365;43.554;1.388;2023-11-22T00:52:45;100424.94;;;13.76;65.85
24234;BME280;12365;43.554;1.388;2023-11-22T00:55:10;100423.84;;;13.71;65.86
24234;BME280;12365;43.554;1.388;2023-11-22T00:57:36;100423.72;;;13.68;65.82
24234;BME280;12365;43.554;1.388;2023-11-22T01:00:02;100431.50;;;13.66;65.87
24234;BME280;12365;43.554;1.388;2023-11-22T01:02:29;100433.16;;;13.64;65.98
24234;BME280;12365;43.554;1.388;2023-11-22T01:04:55;100428.66;;;13.62;65.88
24234;BME280;12365;43.554;1.388;2023-11-22T01:07:20;100430.34;;;13.60;65.84
24234;BME280;12365;43.554;1.388;2023-11-22T01:09:45;100443.44;;;13.60;65.92
24234;BME280;12365;43.554;1.388;2023-11-22T01:12:11;100447.72;;;13.58;66.04
24234;BME280;12365;43.554;1.388;2023-11-22T01:14:38;100448.59;;;13.58;65.82
24234;BME280;12365;43.554;1.388;2023-11-22T01:17:04;100447.72;;;13.58;66.00
24234;BME280;12365;43.554;1.388;2023-11-22T01:19:30;100448.53;;;13.57;65.98
24234;BME280;12365;43.554;1.388;2023-11-22T01:21:55;100455.59;;;13.58;65.90
24234;BME280;12365;43.554;1.388;2023-11-22T01:24:20;100453.72;;;13.55;65.90
24234;BME280;12365;43.554;1.388;2023-11-22T01:26:46;100463.22;;;13.53;65.87
24234;BME280;12365;43.554;1.388;2023-11-22T01:29:11;100464.06;;;13.52;65.93
24234;BME280;12365;43.554;1.388;2023-11-22T01:31:37;100456.88;;;13.48;65.98
24234;BME280;12365;43.554;1.388;2023-11-22T01:34:03;100463.72;;;13.44;65.98
24234;BME280;12365;43.554;1.388;2023-11-22T01:36:29;100468.78;;;13.41;66.07
24234;BME280;12365;43.554;1.388;2023-11-22T01:38:55;100468.63;;;13.38;66.08
24234;BME280;12365;43.554;1.388;2023-11-22T01:41:23;100465.03;;;13.36;66.09
24234;BME280;12365;43.554;1.388;2023-11-22T01:43:49;100470.13;;;13.33;66.20
24234;BME280;12365;43.554;1.388;2023-11-22T01:46:23;100465.56;;;13.29;66.05
24234;BME280;12365;43.554;1.388;2023-11-22T01:48:52;100468.94;;;13.27;66.19
24234;BME280;12365;43.554;1.388;2023-11-22T01:51:23;100464.28;;;13.21;66.33
24234;BME280;12365;43.554;1.388;2023-11-22T01:53:51;100465.09;;;13.20;66.38
24234;BME280;12365;43.554;1.388;2023-11-22T01:56:21;100473.19;;;13.25;66.13
24234;BME280;12365;43.554;1.388;2023-11-22T01:58:47;100473.63;;;13.16;66.21
24234;BME280;12365;43.554;1.388;2023-11-22T02:01:14;100481.34;;;13.13;66.19
24234;BME280;12365;43.554;1.388;2023-11-22T02:03:41;100476.94;;;13.12;66.45
24234;BME280;12365;43.554;1.388;2023-11-22T02:06:07;100475.00;;;13.08;66.41
24234;BME280;12365;43.554;1.388;2023-11-22T02:08:35;100471.38;;;13.06;66.40
24234;BME280;12365;43.554;1.388;2023-11-22T02:11:01;100476.56;;;13.04;66.38
24234;BME280;12365;43.554;1.388;2023-11-22T02:13:30;100474.69;;;13.01;66.31
24234;BME280;12365;43.554;1.388;2023-11-22T02:15:56;100480.69;;;12.99;66.43
24234;BME280;12365;43.554;1.388;2023-11-22T02:18:28;100481.25;;;12.93;66.52
24234;BME280;12365;43.554;1.388;2023-11-22T02:20:53;100481.25;;;12.93;66.42
24234;BME280;12365;43.554;1.388;2023-11-22T02:23:19;100478.50;;;12.90;66.57
24234;BME280;12365;43.554;1.388;2023-11-22T02:25:44;100482.75;;;12.88;66.51
24234;BME280;12365;43.554;1.388;2023-11-22T02:28:11;100478.19;;;12.84;66.50
24234;BME280;12365;43.554;1.388;2023-11-22T02:30:37;100476.38;;;12.83;66.42
24234;BME280;12365;43.554;1.388;2023-11-22T02:33:03;100475.41;;;12.81;66.57
24234;BME280;12365;43.554;1.388;2023-11-22T02:35:30;100470.16;;;12.81;66.60
24234;BME280;12365;43.554;1.388;2023-11-22T02:37:57;100468.22;;;12.77;66.58
24234;BME280;12365;43.554;1.388;2023-11-22T02:40:22;100467.50;;;12.79;66.63
24234;BME280;12365;43.554;1.388;2023-11-22T02:42:49;100462.16;;;12.78;66.74
24234;BME280;12365;43.554;1.388;2023-11-22T02:45:18;100466.59;;;12.79;66.78
24234;BME280;12365;43.554;1.388;2023-11-22T02:47:44;100458.56;;;12.76;66.63
24234;BME280;12365;43.554;1.388;2023-11-22T02:50:12;100462.91;;;12.75;66.71
24234;BME280;12365;43.554;1.388;2023-11-22T02:52:37;100462.84;;;12.74;66.76
24234;BME280;12365;43.554;1.388;2023-11-22T02:55:04;100461.94;;;12.73;66.76
24234;BME280;12365;43.554;1.388;2023-11-22T02:57:30;100460.22;;;12.74;66.70
24234;BME280;12365;43.554;1.388;2023-11-22T02:59:57;100461.94;;;12.73;66.96
24234;BME280;12365;43.554;1.388;2023-11-22T03:02:22;100464.63;;;12.75;66.86
24234;BME280;12365;43.554;1.388;2023-11-22T03:04:47;100454.31;;;12.78;66.77
24234;BME280;12365;43.554;1.388;2023-11-22T03:07:13;100458.88;;;12.82;66.83
24234;BME280;12365;43.554;1.388;2023-11-22T03:09:40;100465.91;;;12.83;66.77
24234;BME280;12365;43.554;1.388;2023-11-22T03:12:08;100480.97;;;12.87;66.86
24234;BME280;12365;43.554;1.388;2023-11-22T03:14:35;100481.06;;;12.89;66.73
24234;BME280;12365;43.554;1.388;2023-11-22T03:17:00;100474.09;;;12.89;66.78
24234;BME280;12365;43.554;1.388;2023-11-22T03:19:26;100472.44;;;12.91;66.95
24234;BME280;12365;43.554;1.388;2023-11-22T03:21:51;100483.06;;;12.94;66.86
24234;BME280;12365;43.554;1.388;2023-11-22T03:24:16;100472.66;;;12.96;66.69
24234;BME280;12365;43.554;1.388;2023-11-22T03:26:42;100472.75;;;12.97;66.83
24234;BME280;12365;43.554;1.388;2023-11-22T03:29:07;100470.25;;;13.00;66.73
24234;BME280;12365;43.554;1.388;2023-11-22T03:31:33;100477.16;;;12.98;66.77
24234;BME280;12365;43.554;1.388;2023-11-22T03:33:58;100475.50;;;13.00;66.66
24234;BME280;12365;43.554;1.388;2023-11-22T03:36:23;100478.13;;;13.00;66.71
24234;BME280;12365;43.554;1.388;2023-11-22T03:38:50;100470.34;;;13.02;66.61
24234;BME280;12365;43.554;1.388;2023-11-22T03:41:16;100473.03;;;13.04;66.75
24234;BME280;12365;43.554;1.388;2023-11-22T03:43:46;100469.47;;;13.01;66.71
24234;BME280;12365;43.554;1.388;2023-11-22T03:46:12;100481.63;;;13.01;66.65
24234;BME280;12365;43.554;1.388;2023-11-22T03:48:37;100467.59;;;12.99;66.75
24234;BME280;12365;43.554;1.388;2023-11-22T03:51:03;100471.91;;;12.98;66.68
24234;BME280;12365;43.554;1.388;2023-11-22T03:53:28;100464.88;;;12.97;66.72
24234;BME280;12365;43.554;1.388;2023-11-22T03:55:54;100458.66;;;12.95;66.64
24234;BME280;12365;43.554;1.388;2023-11-22T03:58:19;100449.69;;;12.90;66.63
24234;BME280;12365;43.554;1.388;2023-11-22T04:00:44;100464.50;;;12.90;66.66
24234;BME280;12365;43.554;1.388;2023-11-22T04:03:10;100463.53;;;12.88;66.66
24234;BME280;12365;43.554;1.388;2023-11-22T04:05:35;100467.78;;;12.86;66.62
24234;BME280;12365;43.554;1.388;2023-11-22T04:08:01;100461.66;;;12.85;66.73
24234;BME280;12365;43.554;1.388;2023-11-22T04:10:26;100461.66;;;12.85;66.66
24234;BME280;12365;43.554;1.388;2023-11-22T04:12:51;100465.25;;;12.87;66.67
24234;BME280;12365;43.554;1.388;2023-11-22T04:15:17;100475.63;;;12.86;66.65
24234;BME280;12365;43.554;1.388;2023-11-22T04:17:43;100471.28;;;12.86;66.68
24234;BME280;12365;43.554;1.388;2023-11-22T04:20:09;100475.63;;;12.86;66.78
24234;BME280;12365;43.554;1.388;2023-11-22T04:22:40;100472.22;;;12.87;66.76
24234;BME280;12365;43.554;1.388;2023-11-22T04:25:06;100478.50;;;12.90;66.74
24234;BME280;12365;43.554;1.388;2023-11-22T04:27:33;100474.09;;;12.89;66.66
24234;BME280;12365;43.554;1.388;2023-11-22T04:29:58;100481.25;;;12.93;66.72
24234;BME280;12365;43.554;1.388;2023-11-22T04:32:23;100483.06;;;12.94;66.63
24234;BME280;12365;43.554;1.388;2023-11-22T04:34:49;100490.94;;;12.94;66.69
24234;BME280;12365;43.554;1.388;2023-11-22T04:37:14;100478.72;;;12.95;66.74
24234;BME280;12365;43.554;1.388;2023-11-22T04:39:39;100490.09;;;12.95;66.74
24234;BME280;12365;43.554;1.388;2023-11-22T04:42:05;100491.91;;;12.96;66.80
24234;BME280;12365;43.554;1.388;2023-11-22T04:44:31;100495.47;;;12.98;66.73
24234;BME280;12365;43.554;1.388;2023-11-22T04:46:57;100488.59;;;13.00;66.75
24234;BME280;12365;43.554;1.388;2023-11-22T04:49:24;100495.66;;;13.01;66.80
24234;BME280;12365;43.554;1.388;2023-11-22T04:51:50;100497.44;;;13.02;66.74
24234;BME280;12365;43.554;1.388;2023-11-22T04:54:15;100499.16;;;13.02;66.85
24234;BME280;12365;43.554;1.388;2023-11-22T04:56:40;100500.91;;;13.01;66.82
24234;BME280;12365;43.554;1.388;2023-11-22T04:59:06;100495.66;;;13.01;66.85
24234;BME280;12365;43.554;1.388;2023-11-22T05:01:34;100502.53;;;12.99;66.76
24234;BME280;12365;43.554;1.388;2023-11-22T05:04:00;100499.78;;;12.96;66.81
24234;BME280;12365;43.554;1.388;2023-11-22T05:06:26;100512.78;;;12.95;67.15
24234;BME280;12365;43.554;1.388;2023-11-22T05:08:52;100518.66;;;12.91;66.81
24234;BME280;12365;43.554;1.388;2023-11-22T05:11:18;100504.69;;;12.90;66.99
24234;BME280;12365;43.554;1.388;2023-11-22T05:13:44;100520.47;;;12.92;66.95
24234;BME280;12365;43.554;1.388;2023-11-22T05:16:09;100519.75;;;12.94;66.90
24234;BME280;12365;43.554;1.388;2023-11-22T05:18:35;100525.22;;;12.99;66.91
24234;BME280;12365;43.554;1.388;2023-11-22T05:21:01;100531.25;;;12.98;66.91
24234;BME280;12365;43.554;1.388;2023-11-22T05:23:28;100535.59;;;12.97;66.84
24234;BME280;12365;43.554;1.388;2023-11-22T05:25:53;100532.91;;;12.96;66.95
24234;BME280;12365;43.554;1.388;2023-11-22T05:28:19;100541.72;;;12.98;66.76
24234;BME280;12365;43.554;1.388;2023-11-22T05:30:44;100538.31;;;12.99;66.90
24234;BME280;12365;43.554;1.388;2023-11-22T05:33:10;100531.34;;;12.99;66.77
24234;BME280;12365;43.554;1.388;2023-11-22T05:35:35;100558.53;;;13.01;66.66
24234;BME280;12365;43.554;1.388;2023-11-22T05:38:00;100550.56;;;13.00;66.74
24234;BME280;12365;43.554;1.388;2023-11-22T05:40:27;100556.72;;;13.00;66.85
24234;BME280;12365;43.554;1.388;2023-11-22T05:42:52;100558.44;;;13.00;66.63
24234;BME280;12365;43.554;1.388;2023-11-22T05:45:17;100566.38;;;13.01;66.64
24234;BME280;12365;43.554;1.388;2023-11-22T05:47:43;100580.28;;;13.00;66.69
24234;BME280;12365;43.554;1.388;2023-11-22T05:50:08;100567.34;;;13.04;66.67
24234;BME280;12365;43.554;1.388;2023-11-22T05:52:34;100577.81;;;13.04;66.55
24234;BME280;12365;43.554;1.388;2023-11-22T05:55:00;100563.91;;;13.05;66.46
24234;BME280;12365;43.554;1.388;2023-11-22T05:57:29;100578.00;;;13.07;66.41
24234;BME280;12365;43.554;1.388;2023-11-22T05:59:55;100589.28;;;13.06;66.34
24234;BME280;12365;43.554;1.388;2023-11-22T06:02:21;100592.88;;;13.08;66.53
24234;BME280;12365;43.554;1.388;2023-11-22T06:04:46;100586.75;;;13.07;66.24
24234;BME280;12365;43.554;1.388;2023-11-22T06:07:12;100601.63;;;13.08;66.23
24234;BME280;12365;43.554;1.388;2023-11-22T06:09:37;100601.56;;;13.07;66.30
24234;BME280;12365;43.554;1.388;2023-11-22T06:12:03;100598.94;;;13.07;66.20
24234;BME280;12365;43.554;1.388;2023-11-22T06:14:28;100600.59;;;13.05;66.12
24234;BME280;12365;43.554;1.388;2023-11-22T06:16:54;100605.00;;;13.06;66.15
24234;BME280;12365;43.554;1.388;2023-11-22T06:19:19;100610.22;;;13.06;66.15
24234;BME280;12365;43.554;1.388;2023-11-22T06:21:45;100610.19;;;13.04;66.21
24234;BME280;12365;43.554;1.388;2023-11-22T06:24:11;100611.13;;;13.06;66.10
24234;BME280;12365;43.554;1.388;2023-11-22T06:26:42;100608.50;;;13.06;66.09
24234;BME280;12365;43.554;1.388;2023-11-22T06:29:07;100616.31;;;13.05;66.13
24234;BME280;12365;43.554;1.388;2023-11-22T06:31:33;100618.09;;;13.06;65.93
24234;BME280;12365;43.554;1.388;2023-11-22T06:33:59;100616.38;;;13.06;66.00
24234;BME280;12365;43.554;1.388;2023-11-22T06:36:26;100616.38;;;13.06;65.94
24234;BME280;12365;43.554;1.388;2023-11-22T06:38:53;100627.78;;;13.07;65.92
24234;BME280;12365;43.554;1.388;2023-11-22T06:41:19;100631.19;;;13.06;65.98
24234;BME280;12365;43.554;1.388;2023-11-22T06:43:49;100628.56;;;13.06;65.79
24234;BME280;12365;43.554;1.388;2023-11-22T06:46:15;100628.56;;;13.06;65.88
24234;BME280;12365;43.554;1.388;2023-11-22T06:48:42;100633.00;;;13.07;65.98
24234;BME280;12365;43.554;1.388;2023-11-22T06:51:09;100637.25;;;13.05;65.92
24234;BME280;12365;43.554;1.388;2023-11-22T06:53:34;100644.28;;;13.06;65.81
24234;BME280;12365;43.554;1.388;2023-11-22T06:56:00;100639.06;;;13.06;65.76
24234;BME280;12365;43.554;1.388;2023-11-22T06:58:26;100640.94;;;13.08;65.71
24234;BME280;12365;43.554;1.388;2023-11-22T07:00:51;100643.63;;;13.10;65.65
24234;BME280;12365;43.554;1.388;2023-11-22T07:03:17;100647.91;;;13.08;65.56
24234;BME280;12365;43.554;1.388;2023-11-22T07:05:42;100647.91;;;13.08;65.56
24234;BME280;12365;43.554;1.388;2023-11-22T07:08:08;100656.75;;;13.10;65.49
24234;BME280;12365;43.554;1.388;2023-11-22T07:10:33;100657.47;;;13.07;65.55
24234;BME280;12365;43.554;1.388;2023-11-22T07:13:00;100661.16;;;13.11;65.43
24234;BME280;12365;43.554;1.388;2023-11-22T07:15:28;100663.75;;;13.11;65.38
24234;BME280;12365;43.554;1.388;2023-11-22T07:17:54;100661.31;;;13.14;65.28
24234;BME280;12365;43.554;1.388;2023-11-22T07:20:20;100663.91;;;13.14;65.30
24234;BME280;12365;43.554;1.388;2023-11-22T07:22:45;100663.19;;;13.16;65.39
24234;BME280;12365;43.554;1.388;2023-11-22T07:25:11;100673.66;;;13.16;65.35
24234;BME280;12365;43.554;1.388;2023-11-22T07:27:46;100675.63;;;13.20;65.38
24234;BME280;12365;43.554;1.388;2023-11-22T07:30:13;100691.25;;;13.19;65.28
24234;BME280;12365;43.554;1.388;2023-11-22T07:32:39;100695.75;;;13.21;65.18
24234;BME280;12365;43.554;1.388;2023-11-22T07:35:06;100694.06;;;13.22;64.98
24234;BME280;12365;43.554;1.388;2023-11-22T07:37:34;100705.50;;;13.24;64.97
24234;BME280;12365;43.554;1.388;2023-11-22T07:40:01;100705.72;;;13.27;65.00
24234;BME280;12365;43.554;1.388;2023-11-22T07:42:28;100706.50;;;13.26;64.96
24234;BME280;12365;43.554;1.388;2023-11-22T07:44:53;100710.03;;;13.27;65.17
24234;BME280;12365;43.554;1.388;2023-11-22T07:47:24;100710.97;;;13.27;64.95
24234;BME280;12365;43.554;1.388;2023-11-22T07:49:51;100723.13;;;13.27;64.90
24234;BME280;12365;43.554;1.388;2023-11-22T07:52:16;100728.38;;;13.27;64.84
24234;BME280;12365;43.554;1.388;2023-11-22T07:54:42;100721.50;;;13.29;64.69
24234;BME280;12365;43.554;1.388;2023-11-22T07:57:07;100724.13;;;13.29;64.74
24234;BME280;12365;43.554;1.388;2023-11-22T07:59:33;100720.63;;;13.28;64.63
24234;BME280;12365;43.554;1.388;2023-11-22T08:01:58;100731.09;;;13.28;64.62
24234;BME280;12365;43.554;1.388;2023-11-22T08:04:26;100729.47;;;13.30;64.62
24234;BME280;12365;43.554;1.388;2023-11-22T08:06:53;100724.38;;;13.33;64.48
24234;BME280;12365;43.554;1.388;2023-11-22T08:09:24;100714.78;;;13.34;64.43
24234;BME280;12365;43.554;1.388;2023-11-22T08:11:50;100719.22;;;13.35;64.44
24234;BME280;12365;43.554;1.388;2023-11-22T08:14:15;100721.00;;;13.36;64.23
24234;BME280;12365;43.554;1.388;2023-11-22T08:16:41;100718.38;;;13.36;64.29
24234;BME280;12365;43.554;1.388;2023-11-22T08:19:08;100709.78;;;13.38;64.26
24234;BME280;12365;43.554;1.388;2023-11-22T08:21:34;100712.50;;;13.40;64.13
24234;BME280;12365;43.554;1.388;2023-11-22T08:23:59;100719.47;;;13.39;64.08
24234;BME280;12365;43.554;1.388;2023-11-22T08:26:25;100712.56;;;13.41;64.18
24234;BME280;12365;43.554;1.388;2023-11-22T08:28:51;100728.38;;;13.43;64.16
24234;BME280;12365;43.554;1.388;2023-11-22T08:31:16;100725.00;;;13.46;64.12
24234;BME280;12365;43.554;1.388;2023-11-22T08:33:42;100717.16;;;13.46;63.97
24234;BME280;12365;43.554;1.388;2023-11-22T08:36:08;100716.31;;;13.47;63.98
24234;BME280;12365;43.554;1.388;2023-11-22T08:38:36;100725.00;;;13.46;63.84
24234;BME280;12365;43.554;1.388;2023-11-22T08:41:05;100718.94;;;13.47;63.86
24234;BME280;12365;43.554;1.388;2023-11-22T08:43:37;100724.19;;;13.47;63.90
24234;BME280;12365;43.554;1.388;2023-11-22T08:46:02;100712.78;;;13.46;63.91
24234;BME280;12365;43.554;1.388;2023-11-22T08:48:32;100722.47;;;13.47;63.87
24234;BME280;12365;43.554;1.388;2023-11-22T08:50:58;100717.16;;;13.46;63.73
24234;BME280;12365;43.554;1.388;2023-11-22T08:53:23;100726.78;;;13.47;63.67
24234;BME280;12365;43.554;1.388;2023-11-22T08:55:49;100716.16;;;13.43;63.57
24234;BME280;12365;43.554;1.388;2023-11-22T08:58:15;100727.63;;;13.46;63.57
24234;BME280;12365;43.554;1.388;2023-11-22T09:00:41;100727.47;;;13.42;63.49
24234;BME280;12365;43.554;1.388;2023-11-22T09:03:09;100726.75;;;13.45;63.56
24234;BME280;12365;43.554;1.388;2023-11-22T09:05:38;100735.06;;;13.54;63.34
24234;BME280;12365;43.554;1.388;2023-11-22T09:08:03;100740.91;;;13.49;63.41
24234;BME280;12365;43.554;1.388;2023-11-22T09:10:29;100741.63;;;13.46;63.42
24234;BME280;12365;43.554;1.388;2023-11-22T09:12:55;100738.13;;;13.46;63.36
24234;BME280;12365;43.554;1.388;2023-11-22T09:15:24;100738.03;;;13.44;63.40
24234;BME280;12365;43.554;1.388;2023-11-22T09:17:52;100732.03;;;13.47;63.26
24234;BME280;12365;43.554;1.388;2023-11-22T09:20:19;100734.66;;;13.47;63.27
24234;BME280;12365;43.554;1.388;2023-11-22T09:22:49;100731.31;;;13.49;63.36
24234;BME280;12365;43.554;1.388;2023-11-22T09:25:15;100724.41;;;13.51;62.98
24234;BME280;12365;43.554;1.388;2023-11-22T09:27:45;100721.78;;;13.51;63.07
24234;BME280;12365;43.554;1.388;2023-11-22T09:30:15;100721.88;;;13.53;63.13
24234;BME280;12365;43.554;1.388;2023-11-22T09:32:57;100723.81;;;13.57;63.12
24234;BME280;12365;43.554;1.388;2023-11-22T09:35:22;100716.78;;;13.56;63.11
24234;BME280;12365;43.554;1.388;2023-11-22T09:37:47;100722.13;;;13.57;63.05
24234;BME280;12365;43.554;1.388;2023-11-22T09:40:13;100726.53;;;13.58;62.96
24234;BME280;12365;43.554;1.388;2023-11-22T09:42:43;100741.53;;;13.61;62.98
24234;BME280;12365;43.554;1.388;2023-11-22T09:45:09;100738.06;;;13.62;62.92
24234;BME280;12365;43.554;1.388;2023-11-22T09:47:34;100743.31;;;13.62;62.96
24234;BME280;12365;43.554;1.388;2023-11-22T09:50:01;100751.19;;;13.62;63.00
24234;BME280;12365;43.554;1.388;2023-11-22T09:52:33;100751.28;;;13.63;62.96
24234;BME280;12365;43.554;1.388;2023-11-22T09:55:00;100755.78;;;13.66;62.82
24234;BME280;12365;43.554;1.388;2023-11-22T09:57:28;100756.75;;;13.68;62.72
24234;BME280;12365;43.554;1.388;2023-11-22T09:59:55;100757.81;;;13.72;62.71
24234;BME280;12365;43.554;1.388;2023-11-22T10:02:22;100755.50;;;13.78;62.71
24234;BME280;12365;43.554;1.388;2023-11-22T10:04:53;100767.78;;;13.79;62.57
24234;BME280;12365;43.554;1.388;2023-11-22T10:07:18;100770.66;;;13.83;62.51
24234;BME280;12365;43.554;1.388;2023-11-22T10:09:44;100773.53;;;13.88;62.51
24234;BME280;12365;43.554;1.388;2023-11-22T10:12:11;100774.69;;;13.95;62.57
24234;BME280;12365;43.554;1.388;2023-11-22T10:14:37;100777.56;;;13.99;62.35
24234;BME280;12365;43.554;1.388;2023-11-22T10:17:03;100783.78;;;14.01;62.24
24234;BME280;12365;43.554;1.388;2023-11-22T10:19:30;100786.56;;;14.04;61.79
24234;BME280;12365;43.554;1.388;2023-11-22T10:22:03;100784.03;;;14.06;62.27
24234;BME280;12365;43.554;1.388;2023-11-22T10:24:31;100790.19;;;14.06;62.03
24234;BME280;12365;43.554;1.388;2023-11-22T10:26:58;100777.06;;;14.06;61.97
24234;BME280;12365;43.554;1.388;2023-11-22T10:29:27;100777.16;;;14.08;61.86
24234;BME280;12365;43.554;1.388;2023-11-22T10:31:52;100774.56;;;14.09;61.70
24234;BME280;12365;43.554;1.388;2023-11-22T10:34:22;100773.78;;;14.11;61.67
24234;BME280;12365;43.554;1.388;2023-11-22T10:36:48;100773.06;;;14.15;61.62
24234;BME280;12365;43.554;1.388;2023-11-22T10:39:20;100755.47;;;14.12;61.58
24234;BME280;12365;43.554;1.388;2023-11-22T10:41:47;100755.59;;;14.15;61.58
24234;BME280;12365;43.554;1.388;2023-11-22T10:44:12;100755.53;;;14.14;61.59
24234;BME280;12365;43.554;1.388;2023-11-22T10:46:40;100755.53;;;14.14;61.50
24234;BME280;12365;43.554;1.388;2023-11-22T10:49:06;100759.81;;;14.12;61.36
24234;BME280;12365;43.554;1.388;2023-11-22T10:51:33;100768.16;;;14.03;61.41
24234;BME280;12365;43.554;1.388;2023-11-22T10:54:00;100762.72;;;14.00;61.37
24234;BME280;12365;43.554;1.388;2023-11-22T10:56:27;100768.06;;;14.01;61.52
24234;BME280;12365;43.554;1.388;2023-11-22T10:58:56;100768.88;;;14.00;61.39
24234;BME280;12365;43.554;1.388;2023-11-22T11:01:26;100757.56;;;14.01;61.35
24234;BME280;12365;43.554;1.388;2023-11-22T11:04:09;100758.59;;;14.05;61.41
24234;BME280;12365;43.554;1.388;2023-11-22T11:06:37;100744.91;;;14.11;61.27
24234;BME280;12365;43.554;1.388;2023-11-22T11:09:06;100738.06;;;14.14;61.29
24234;BME280;12365;43.554;1.388;2023-11-22T11:11:37;100732.16;;;14.18;61.23
24234;BME280;12365;43.554;1.388;2023-11-22T11:14:05;100725.53;;;14.26;61.11
24234;BME280;12365;43.554;1.388;2023-11-22T11:16:34;100723.44;;;14.37;60.93
24234;BME280;12365;43.554;1.388;2023-11-22T11:19:03;100725.66;;;14.47;60.96
24234;BME280;12365;43.554;1.388;2023-11-22T11:21:30;100728.81;;;14.58;61.03
24234;BME280;12365;43.554;1.388;2023-11-22T11:23:55;100720.53;;;14.68;60.86
24234;BME280;12365;43.554;1.388;2023-11-22T11:26:27;100716.69;;;14.80;60.82
24234;BME280;12365;43.554;1.388;2023-11-22T11:28:52;100711.03;;;14.90;60.59
24234;BME280;12365;43.554;1.388;2023-11-22T11:31:21;100711.66;;;15.04;60.42
24234;BME280;12365;43.554;1.388;2023-11-22T11:36:21;100710.41;;;15.15;60.16
24234;BME280;12365;43.554;1.388;2023-11-22T11:38:48;100715.34;;;15.07;59.97
24234;BME280;12365;43.554;1.388;2023-11-22T11:41:14;100720.78;;;14.92;60.00
24234;BME280;12365;43.554;1.388;2023-11-22T11:43:44;100732.59;;;14.83;60.20
24234;BME280;12365;43.554;1.388;2023-11-22T11:46:12;100724.00;;;14.67;60.30
24234;BME280;12365;43.554;1.388;2023-11-22T11:48:37;100726.16;;;14.57;60.31
24234;BME280;12365;43.554;1.388;2023-11-22T11:51:03;100737.22;;;14.51;60.46
24234;BME280;12365;43.554;1.388;2023-11-22T11:53:28;100732.72;;;14.48;60.63
24234;BME280;12365;43.554;1.388;2023-11-22T11:55:57;100744.00;;;14.46;60.49
24234;BME280;12365;43.554;1.388;2023-11-22T11:58:23;100748.41;;;14.47;60.62
24234;BME280;12365;43.554;1.388;2023-11-22T12:00:51;100745.03;;;14.49;60.50
24234;BME280;12365;43.554;1.388;2023-11-22T12:03:18;100753.78;;;14.50;60.61
24234;BME280;12365;43.554;1.388;2023-11-22T12:05:46;100767.09;;;14.53;60.34
24234;BME280;12365;43.554;1.388;2023-11-22T12:08:13;100745.91;;;14.50;60.44
24234;BME280;12365;43.554;1.388;2023-11-22T12:10:41;100754.06;;;14.55;60.35
24234;BME280;12365;43.554;1.388;2023-11-22T12:13:07;100762.06;;;14.58;60.25
24234;BME280;12365;43.554;1.388;2023-11-22T12:15:33;100763.94;;;14.60;60.33
24234;BME280;12365;43.554;1.388;2023-11-22T12:17:59;100764.91;;;14.62;60.08
24234;BME280;12365;43.554;1.388;2023-11-22T12:20:26;100767.69;;;14.65;59.99
24234;BME280;12365;43.554;1.388;2023-11-22T12:22:57;100763.63;;;14.72;60.13
24234;BME280;12365;43.554;1.388;2023-11-22T12:25:22;100757.75;;;14.78;59.92
24234;BME280;12365;43.554;1.388;2023-11-22T12:27:54;100743.06;;;14.81;59.85
24234;BME280;12365;43.554;1.388;2023-11-22T12:30:30;100736.47;;;14.91;59.70
24234;BME280;12365;43.554;1.388;2023-11-22T12:33:15;100742.28;;;15.03;59.83
24234;BME280;12365;43.554;1.388;2023-11-22T12:35:43;100729.28;;;15.06;59.41
24234;BME280;12365;43.554;1.388;2023-11-22T12:38:09;100729.91;;;15.01;59.56
24234;BME280;12365;43.554;1.388;2023-11-22T12:40:35;100723.69;;;14.99;59.70
24234;BME280;12365;43.554;1.388;2023-11-22T12:43:01;100701.09;;;15.02;59.56
24234;BME280;12365;43.554;1.388;2023-11-22T12:45:29;100706.59;;;15.08;59.50
24234;BME280;12365;43.554;1.388;2023-11-22T12:47:56;100707.03;;;15.17;59.60
24234;BME280;12365;43.554;1.388;2023-11-22T12:53:12;100701.00;;;15.01;59.28